Time;durP1;ratioP1;P1;durP2;ratioP2;P2;SDS_P1;SDS_P2;PMS_P1;PMS_P2;Temp;Humidity;BMP_temperature;BMP_pressure;BME280_temperature;BME280_humidity;BME280_pressure;Samples;Min_cycle;Max_cycle;Signal;HPM_P1;HPM_P2
2022/09/06 00:01:41;;;;;;;;;;;23.40;99.90;;;;;;5072468;28;19909;-84
2022/09/06 00:04:07;;;;;;;;;;;23.40;99.90;;;;;;5073817;28;20277;-84
2022/09/06 00:06:33;;;;;;;;;;;23.40;99.90;;;;;;5071721;28;19962;-84
2022/09/06 00:08:58;;;;;;;;;;;23.30;99.90;;;;;;5072404;28;20377;-84
2022/09/06 00:11:24;;;;;;;;;;;23.30;99.90;;;;;;5072316;28;19916;-85
2022/09/06 00:13:49;;;;;;;;;;;23.10;99.90;;;;;;5072206;28;19916;-84
2022/09/06 00:16:19;;;;;;;;;;;23.10;99.90;;;;;;5071510;28;19912;-82
2022/09/06 00:18:45;;;;;;;;;;;23.00;99.90;;;;;;5071927;28;20000;-84
2022/09/06 00:21:12;;;;;;;;;;;22.80;99.90;;;;;;5072315;28;20402;-83
2022/09/06 00:23:38;;;;;;;;;;;22.50;99.90;;;;;;5072269;28;19999;-84
2022/09/06 00:26:04;;;;;;;;;;;21.90;99.90;;;;;;5071547;28;20389;-83
2022/09/06 00:28:30;;;;;;;;;;;21.20;99.90;;;;;;5071892;28;19909;-82
2022/09/06 00:30:56;;;;;;;;;;;20.50;99.90;;;;;;5071994;28;20355;-82
2022/09/06 00:33:22;;;;;;;;;;;20.00;99.90;;;;;;5073312;28;20373;-83
2022/09/06 00:35:48;;;;;;;;;;;19.70;99.90;;;;;;5071781;28;20013;-81
2022/09/06 00:38:13;;;;;;;;;;;19.50;99.90;;;;;;5072739;28;19908;-82
2022/09/06 00:40:39;;;;;;;;;;;19.30;99.90;;;;;;5073244;28;19909;-83
2022/09/06 00:43:04;;;;;;;;;;;19.20;99.90;;;;;;5071934;28;19990;-84
2022/09/06 00:45:30;;;;;;;;;;;19.10;99.90;;;;;;5071628;28;20364;-84
2022/09/06 00:47:57;;;;;;;;;;;18.90;99.90;;;;;;5071192;28;20000;-84
2022/09/06 00:50:22;;;;;;;;;;;19.10;99.90;;;;;;5071676;28;20006;-84
2022/09/06 00:52:49;;;;;;;;;;;19.00;99.90;;;;;;5071578;28;19968;-84
2022/09/06 00:55:15;;;;;;;;;;;19.20;99.90;;;;;;5071625;28;19909;-84
2022/09/06 00:57:40;;;;;;;;;;;19.30;99.90;;;;;;5070901;28;19908;-84
2022/09/06 01:00:07;;;;;;;;;;;19.30;99.90;;;;;;5071595;28;19974;-84
2022/09/06 01:02:33;;;;;;;;;;;19.30;99.90;;;;;;5071447;28;19961;-84
2022/09/06 01:04:59;;;;;;;;;;;19.40;99.90;;;;;;5072673;28;20003;-83
2022/09/06 01:07:39;;;;;;;;;;;19.40;99.90;;;;;;5070752;28;19916;-84
2022/09/06 01:10:24;;;;;;;;;;;19.40;99.90;;;;;;5071515;28;20295;-84
2022/09/06 01:12:58;;;;;;;;;;;19.50;99.90;;;;;;5071528;28;19935;-84
2022/09/06 01:15:42;;;;;;;;;;;19.50;99.90;;;;;;5072462;28;19909;-85
2022/09/06 01:18:27;;;;;;;;;;;19.50;99.90;;;;;;5071287;28;19932;-84
2022/09/06 01:20:55;;;;;;;;;;;19.50;99.90;;;;;;5071271;28;19961;-84
2022/09/06 01:23:36;;;;;;;;;;;19.50;99.90;;;;;;5071223;28;20360;-84
2022/09/06 01:26:31;;;;;;;;;;;19.50;99.90;;;;;;5070553;28;19931;-84
2022/09/06 01:28:57;;;;;;;;;;;19.60;99.90;;;;;;5054118;28;19909;-83
2022/09/06 01:31:27;;;;;;;;;;;19.50;99.90;;;;;;5072334;28;20367;-84
2022/09/06 01:34:10;;;;;;;;;;;19.60;99.90;;;;;;5071333;28;19912;-84
2022/09/06 01:36:35;;;;;;;;;;;19.60;99.90;;;;;;5070587;28;20004;-85
2022/09/06 01:39:01;;;;;;;;;;;19.60;99.90;;;;;;5072371;28;19952;-84
2022/09/06 01:41:27;;;;;;;;;;;19.50;99.90;;;;;;5071054;28;20003;-84
2022/09/06 01:43:53;;;;;;;;;;;19.60;99.90;;;;;;5071131;28;20398;-83
2022/09/06 01:46:26;;;;;;;;;;;19.40;99.90;;;;;;5070430;28;19988;-85
2022/09/06 01:48:51;;;;;;;;;;;19.50;99.90;;;;;;5071091;28;20268;-84
2022/09/06 01:51:29;;;;;;;;;;;19.50;99.90;;;;;;5074133;28;19908;-84
2022/09/06 01:54:03;;;;;;;;;;;19.50;99.90;;;;;;5075131;28;19909;-84
2022/09/06 01:56:45;;;;;;;;;;;19.50;99.90;;;;;;5074428;28;19947;-84
2022/09/06 01:59:18;;;;;;;;;;;19.50;99.90;;;;;;5074896;28;20290;-85
2022/09/06 02:01:51;;;;;;;;;;;19.50;99.90;;;;;;5074992;28;19913;-85
2022/09/06 02:04:32;;;;;;;;;;;19.50;99.90;;;;;;5075078;28;19908;-85
2022/09/06 02:07:00;;;;;;;;;;;19.50;99.90;;;;;;5075361;28;19966;-84
2022/09/06 02:09:27;;;;;;;;;;;19.50;99.90;;;;;;5074901;28;19908;-84
2022/09/06 02:11:58;;;;;;;;;;;19.50;99.90;;;;;;5074826;28;19908;-85
2022/09/06 02:14:44;;;;;;;;;;;19.50;99.90;;;;;;5074699;28;19908;-84
2022/09/06 02:17:11;;;;;;;;;;;19.60;99.90;;;;;;5074506;28;19953;-85
2022/09/06 02:20:09;;;;;;;;;;;19.60;99.90;;;;;;5074666;28;19912;-84
2022/09/06 02:22:43;;;;;;;;;;;19.60;99.90;;;;;;5030605;28;19908;-85
2022/09/06 02:25:10;;;;;;;;;;;19.60;99.90;;;;;;5074454;28;20372;-85
2022/09/06 02:27:36;;;;;;;;;;;19.60;99.90;;;;;;5073894;28;19963;-85
2022/09/06 02:30:02;;;;;;;;;;;19.60;99.90;;;;;;5074385;28;20615;-85
2022/09/06 02:32:29;;;;;;;;;;;19.60;99.90;;;;;;5075551;28;19919;-85
2022/09/06 02:34:55;;;;;;;;;;;19.60;99.90;;;;;;5075589;28;19966;-85
2022/09/06 02:37:22;;;;;;;;;;;19.60;99.90;;;;;;5073635;28;19909;-85
2022/09/06 02:39:48;;;;;;;;;;;19.70;99.90;;;;;;5074184;28;19959;-85
2022/09/06 02:42:14;;;;;;;;;;;19.70;99.90;;;;;;5074109;28;20362;-85
2022/09/06 02:44:39;;;;;;;;;;;19.70;99.90;;;;;;5075322;28;19915;-85
2022/09/06 02:47:05;;;;;;;;;;;19.70;99.90;;;;;;5074566;28;20303;-85
2022/09/06 02:49:31;;;;;;;;;;;19.80;99.90;;;;;;5075461;28;19962;-84
2022/09/06 02:51:57;;;;;;;;;;;19.80;99.90;;;;;;5073989;28;20450;-84
2022/09/06 02:54:22;;;;;;;;;;;19.80;99.90;;;;;;5075166;28;20004;-85
2022/09/06 02:56:48;;;;;;;;;;;19.80;99.90;;;;;;5073247;28;20322;-85
2022/09/06 02:59:13;;;;;;;;;;;19.80;99.90;;;;;;5073817;28;19959;-85
2022/09/06 03:01:39;;;;;;;;;;;19.80;99.90;;;;;;5073198;28;19908;-84
2022/09/06 03:04:04;;;;;;;;;;;19.80;99.90;;;;;;5073860;28;19999;-84
2022/09/06 03:06:30;;;;;;;;;;;19.80;99.90;;;;;;5073033;28;19912;-84
2022/09/06 03:08:56;;;;;;;;;;;19.70;99.90;;;;;;5073678;28;19999;-85
2022/09/06 03:11:21;;;;;;;;;;;19.70;99.90;;;;;;5074850;28;20405;-84
2022/09/06 03:13:47;;;;;;;;;;;19.70;99.90;;;;;;5073553;28;20375;-83
2022/09/06 03:16:12;;;;;;;;;;;19.70;99.90;;;;;;5072940;28;20319;-85
2022/09/06 03:18:38;;;;;;;;;;;19.60;99.90;;;;;;5073080;28;20306;-85
2022/09/06 03:21:06;;;;;;;;;;;19.60;99.90;;;;;;5074696;28;20435;-85
2022/09/06 03:23:33;;;;;;;;;;;19.60;99.90;;;;;;5074715;28;19908;-84
2022/09/06 03:25:58;;;;;;;;;;;19.70;99.90;;;;;;5072755;28;19920;-84
2022/09/06 03:28:24;;;;;;;;;;;19.70;99.90;;;;;;5073212;28;20280;-85
2022/09/06 03:30:50;;;;;;;;;;;19.80;99.90;;;;;;5073198;28;19955;-84
2022/09/06 03:33:16;;;;;;;;;;;19.80;99.90;;;;;;5073278;28;19909;-84
2022/09/06 03:35:50;;;;;;;;;;;19.80;99.90;;;;;;5072586;28;19909;-85
2022/09/06 03:38:16;;;;;;;;;;;19.80;99.90;;;;;;5073143;28;19912;-85
2022/09/06 03:40:45;;;;;;;;;;;19.80;99.90;;;;;;5073059;28;19954;-85
2022/09/06 03:43:11;;;;;;;;;;;19.90;99.90;;;;;;5073088;28;19908;-86
2022/09/06 03:45:36;;;;;;;;;;;19.90;99.90;;;;;;5072454;28;20322;-85
2022/09/06 03:48:02;;;;;;;;;;;19.90;99.90;;;;;;5073100;28;19916;-85
2022/09/06 03:50:27;;;;;;;;;;;20.00;99.90;;;;;;5072798;28;19958;-84
2022/09/06 03:52:53;;;;;;;;;;;20.00;99.90;;;;;;5072870;28;19909;-84
2022/09/06 03:55:18;;;;;;;;;;;19.90;99.90;;;;;;5074086;28;19961;-84
2022/09/06 03:57:44;;;;;;;;;;;19.90;99.90;;;;;;5072050;28;20386;-84
2022/09/06 04:00:09;;;;;;;;;;;19.90;99.90;;;;;;5073896;28;19948;-84
2022/09/06 04:02:35;;;;;;;;;;;19.90;99.90;;;;;;5073881;28;19908;-84
2022/09/06 04:05:00;;;;;;;;;;;19.90;99.90;;;;;;5072634;28;20026;-84
2022/09/06 04:07:26;;;;;;;;;;;19.90;99.90;;;;;;5071965;28;20436;-84
2022/09/06 04:09:51;;;;;;;;;;;19.80;99.90;;;;;;5072545;28;20007;-85
2022/09/06 04:12:16;;;;;;;;;;;19.80;99.90;;;;;;5072360;28;19908;-85
2022/09/06 04:14:42;;;;;;;;;;;19.70;99.90;;;;;;5071525;28;20029;-84
2022/09/06 04:17:07;;;;;;;;;;;19.70;99.90;;;;;;5071630;28;19919;-85
2022/09/06 04:19:35;;;;;;;;;;;19.60;99.90;;;;;;5103872;22;19930;-82
2022/09/06 04:22:01;;;;;;;;;;;19.60;99.90;;;;;;5094069;28;19950;-80
2022/09/06 04:27:54;;;;;;;;;;;19.50;99.90;;;;;;5050648;28;19917;-80
2022/09/06 04:30:19;;;;;;;;;;;19.40;99.90;;;;;;5051464;28;19916;-80
2022/09/06 04:32:45;;;;;;;;;;;19.40;99.90;;;;;;5090285;28;19912;-81
2022/09/06 04:35:10;;;;;;;;;;;19.30;99.90;;;;;;5095077;28;20006;-81
2022/09/06 04:37:36;;;;;;;;;;;19.30;99.90;;;;;;5093280;28;20454;-80
2022/09/06 04:40:02;;;;;;;;;;;19.30;99.90;;;;;;5093982;28;19912;-80
2022/09/06 04:42:28;;;;;;;;;;;19.20;99.90;;;;;;5094195;28;19976;-80
2022/09/06 04:44:53;;;;;;;;;;;19.20;99.90;;;;;;5092199;28;19947;-81
2022/09/06 04:47:21;;;;;;;;;;;19.20;99.90;;;;;;5093656;28;19965;-81
2022/09/06 04:49:48;;;;;;;;;;;19.10;99.90;;;;;;5093917;28;19943;-81
2022/09/06 04:52:14;;;;;;;;;;;19.10;99.90;;;;;;5093775;28;19962;-80
2022/09/06 04:54:42;;;;;;;;;;;19.10;99.90;;;;;;5092441;28;19959;-80
2022/09/06 04:57:08;;;;;;;;;;;19.10;99.90;;;;;;5091333;28;19908;-80
2022/09/06 04:59:33;;;;;;;;;;;19.10;99.90;;;;;;5091797;28;19915;-80
2022/09/06 05:01:59;;;;;;;;;;;19.10;99.90;;;;;;5093045;28;19987;-80
2022/09/06 05:04:27;;;;;;;;;;;19.10;99.90;;;;;;5091585;28;19908;-80
2022/09/06 05:07:03;;;;;;;;;;;19.10;99.90;;;;;;5092362;28;20402;-80
2022/09/06 05:09:30;;;;;;;;;;;19.10;99.90;;;;;;5093000;28;19919;-82
2022/09/06 05:11:56;;;;;;;;;;;19.10;99.90;;;;;;5092831;28;19908;-80
2022/09/06 05:14:21;;;;;;;;;;;19.10;99.90;;;;;;5092912;28;19912;-80
2022/09/06 05:16:54;;;;;;;;;;;19.10;99.90;;;;;;5092074;28;19954;-80
2022/09/06 05:19:20;;;;;;;;;;;19.10;99.90;;;;;;5092721;28;19939;-81
2022/09/06 05:21:46;;;;;;;;;;;19.10;99.90;;;;;;5092765;28;19931;-80
2022/09/06 05:24:11;;;;;;;;;;;19.10;99.90;;;;;;5092489;28;19951;-80
2022/09/06 05:26:37;;;;;;;;;;;19.10;99.90;;;;;;5091973;28;19995;-80
2022/09/06 05:29:03;;;;;;;;;;;19.10;99.90;;;;;;5092631;28;20298;-80
2022/09/06 05:31:29;;;;;;;;;;;19.10;99.90;;;;;;5092709;28;19935;-80
2022/09/06 05:33:56;;;;;;;;;;;19.20;99.90;;;;;;5092667;28;20379;-80
2022/09/06 05:36:22;;;;;;;;;;;19.20;99.90;;;;;;5092038;28;19912;-80
2022/09/06 05:38:51;;;;;;;;;;;19.20;99.90;;;;;;5092508;28;19915;-79
2022/09/06 05:41:17;;;;;;;;;;;19.30;99.90;;;;;;5092689;28;20467;-80
2022/09/06 05:43:43;;;;;;;;;;;19.30;99.90;;;;;;5092616;28;19923;-80
2022/09/06 05:46:09;;;;;;;;;;;19.30;99.90;;;;;;5091948;28;19912;-80
2022/09/06 05:48:34;;;;;;;;;;;19.40;99.90;;;;;;5092414;28;19908;-80
2022/09/06 05:51:00;;;;;;;;;;;19.50;99.90;;;;;;5092450;28;19931;-80
2022/09/06 05:53:26;;;;;;;;;;;19.50;99.90;;;;;;5093061;28;20325;-81
2022/09/06 05:55:54;;;;;;;;;;;19.50;99.90;;;;;;5095059;28;20003;-80
2022/09/06 05:58:19;;;;;;;;;;;19.70;99.90;;;;;;5103379;28;19908;-81
2022/09/06 06:00:45;;;;;;;;;;;19.70;99.90;;;;;;5098575;28;19915;-81
2022/09/06 06:03:11;;;;;;;;;;;19.80;99.90;;;;;;5106610;28;19915;-81
2022/09/06 06:05:36;;;;;;;;;;;19.90;99.90;;;;;;5092625;28;20402;-81
2022/09/06 06:08:02;;;;;;;;;;;19.90;99.90;;;;;;5092834;28;20360;-81
2022/09/06 06:10:27;;;;;;;;;;;19.90;99.90;;;;;;5092578;28;19912;-81
2022/09/06 06:12:55;;;;;;;;;;;19.90;99.90;;;;;;5084773;28;20378;-78
2022/09/06 06:15:21;;;;;;;;;;;20.00;99.90;;;;;;5083339;28;20042;-79
2022/09/06 06:17:46;;;;;;;;;;;20.10;99.90;;;;;;5089495;28;20381;-79
2022/09/06 06:20:12;;;;;;;;;;;20.20;99.90;;;;;;5091512;28;20432;-80
2022/09/06 06:22:37;;;;;;;;;;;20.30;99.90;;;;;;5070395;28;19946;-79
2022/09/06 06:25:03;;;;;;;;;;;20.40;99.90;;;;;;5071828;28;19916;-79
2022/09/06 06:27:29;;;;;;;;;;;20.50;99.90;;;;;;5071049;28;19912;-78
2022/09/06 06:29:54;;;;;;;;;;;20.50;99.90;;;;;;5072175;28;20367;-78
2022/09/06 06:32:20;;;;;;;;;;;20.60;99.90;;;;;;5071639;28;19915;-79
2022/09/06 06:34:45;;;;;;;;;;;20.60;99.90;;;;;;5087258;28;19908;-79
2022/09/06 06:37:10;;;;;;;;;;;20.70;99.90;;;;;;5072589;28;19990;-78
2022/09/06 06:39:37;;;;;;;;;;;20.80;99.90;;;;;;5074152;28;19908;-78
2022/09/06 06:42:02;;;;;;;;;;;20.90;99.90;;;;;;5075296;28;19913;-78
2022/09/06 06:44:28;;;;;;;;;;;20.90;99.90;;;;;;5075707;28;19908;-79
2022/09/06 06:46:56;;;;;;;;;;;20.90;99.90;;;;;;5075353;28;19983;-79
2022/09/06 06:49:22;;;;;;;;;;;21.00;99.90;;;;;;5073795;28;20003;-78
2022/09/06 06:51:47;;;;;;;;;;;21.10;99.90;;;;;;5075290;28;20338;-79
2022/09/06 06:54:13;;;;;;;;;;;21.20;99.90;;;;;;5076063;28;19980;-79
2022/09/06 06:56:44;;;;;;;;;;;21.20;99.90;;;;;;5075913;28;20276;-79
2022/09/06 06:59:10;;;;;;;;;;;21.30;99.90;;;;;;5076992;28;19916;-79
2022/09/06 07:01:36;;;;;;;;;;;21.40;99.90;;;;;;5090682;28;19908;-78
2022/09/06 07:04:01;;;;;;;;;;;21.50;99.90;;;;;;5074882;28;19916;-78
2022/09/06 07:06:27;;;;;;;;;;;21.50;99.90;;;;;;5074000;28;19959;-79
2022/09/06 07:08:52;;;;;;;;;;;21.50;99.90;;;;;;5074633;28;19908;-79
2022/09/06 07:11:18;;;;;;;;;;;21.50;99.90;;;;;;5074794;28;20005;-79
2022/09/06 07:13:44;;;;;;;;;;;21.60;99.90;;;;;;5074688;28;19955;-78
2022/09/06 07:16:12;;;;;;;;;;;21.60;99.90;;;;;;5073705;28;20563;-78
2022/09/06 07:18:40;;;;;;;;;;;21.80;99.90;;;;;;5074293;28;20299;-78
2022/09/06 07:21:16;;;;;;;;;;;21.90;99.90;;;;;;5074486;28;19909;-79
2022/09/06 07:23:42;;;;;;;;;;;21.90;99.90;;;;;;5074422;28;19912;-79
2022/09/06 07:26:12;;;;;;;;;;;22.00;99.90;;;;;;5073589;28;20338;-79
2022/09/06 07:28:37;;;;;;;;;;;22.10;99.90;;;;;;5074326;28;19908;-79
2022/09/06 07:31:03;;;;;;;;;;;22.20;99.90;;;;;;5074255;28;19908;-78
2022/09/06 07:33:29;;;;;;;;;;;22.10;99.90;;;;;;5074388;28;19914;-79
2022/09/06 07:35:55;;;;;;;;;;;22.20;99.90;;;;;;5073394;28;19909;-79
2022/09/06 07:38:20;;;;;;;;;;;22.30;99.90;;;;;;5074079;28;19908;-78
2022/09/06 07:40:51;;;;;;;;;;;22.40;99.90;;;;;;5089720;28;19908;-79
2022/09/06 07:43:17;;;;;;;;;;;22.40;99.90;;;;;;5074121;28;19915;-79
2022/09/06 07:45:42;;;;;;;;;;;22.50;99.90;;;;;;5073692;28;19909;-79
2022/09/06 07:48:08;;;;;;;;;;;22.50;99.90;;;;;;5074452;28;19999;-79
2022/09/06 07:50:33;;;;;;;;;;;22.60;99.90;;;;;;5074824;28;19977;-80
2022/09/06 07:53:08;;;;;;;;;;;22.70;99.90;;;;;;5095793;28;19934;-80
2022/09/06 07:55:34;;;;;;;;;;;22.80;99.90;;;;;;5092532;28;20346;-79
2022/09/06 07:57:59;;;;;;;;;;;22.90;99.90;;;;;;5077274;28;19909;-80
2022/09/06 08:00:25;;;;;;;;;;;23.10;99.90;;;;;;5076773;28;19915;-80
2022/09/06 08:02:50;;;;;;;;;;;23.20;99.90;;;;;;5076423;28;19908;-80
2022/09/06 08:05:16;;;;;;;;;;;23.30;99.90;;;;;;5076407;28;20372;-80
2022/09/06 08:07:41;;;;;;;;;;;23.40;99.90;;;;;;5084671;28;19920;-80
2022/09/06 08:10:07;;;;;;;;;;;23.50;99.90;;;;;;5096289;28;19908;-80
2022/09/06 08:12:32;;;;;;;;;;;23.60;99.90;;;;;;5095512;28;19914;-79
2022/09/06 08:14:58;;;;;;;;;;;23.60;99.90;;;;;;5095318;28;19914;-80
2022/09/06 08:17:23;;;;;;;;;;;23.60;99.90;;;;;;5094146;28;20302;-80
2022/09/06 08:19:49;;;;;;;;;;;23.70;99.90;;;;;;5095203;28;19955;-79
2022/09/06 08:22:14;;;;;;;;;;;23.70;99.90;;;;;;5095431;28;19986;-79
2022/09/06 08:24:40;;;;;;;;;;;23.90;99.90;;;;;;5095222;28;19912;-79
2022/09/06 08:27:06;;;;;;;;;;;24.00;99.90;;;;;;5093908;28;19922;-79
2022/09/06 08:29:35;;;;;;;;;;;24.10;99.90;;;;;;5093715;28;19912;-80
2022/09/06 08:32:00;;;;;;;;;;;24.20;99.90;;;;;;5095064;28;19935;-80
2022/09/06 08:34:26;;;;;;;;;;;24.30;99.90;;;;;;5094725;28;20267;-80
2022/09/06 08:36:51;;;;;;;;;;;24.50;99.90;;;;;;5094028;28;19912;-80
2022/09/06 08:39:17;;;;;;;;;;;24.60;99.90;;;;;;5095090;28;20268;-79
2022/09/06 08:41:45;;;;;;;;;;;24.70;99.90;;;;;;5095033;28;19919;-79
2022/09/06 08:44:19;;;;;;;;;;;24.90;99.90;;;;;;5094988;28;19934;-79
2022/09/06 08:46:57;;;;;;;;;;;25.00;99.90;;;;;;5092395;28;20363;-80
2022/09/06 08:49:24;;;;;;;;;;;25.10;99.90;;;;;;5083111;28;21039;-79
2022/09/06 08:52:05;;;;;;;;;;;25.20;99.90;;;;;;5083003;28;19908;-79
2022/09/06 08:54:34;;;;;;;;;;;25.30;99.90;;;;;;5077857;28;19987;-80
2022/09/06 08:57:07;;;;;;;;;;;25.40;99.90;;;;;;5093936;28;19914;-81
2022/09/06 08:59:39;;;;;;;;;;;25.60;99.90;;;;;;5094044;28;20011;-81
2022/09/06 09:02:13;;;;;;;;;;;26.30;99.90;;;;;;5093743;28;20383;-81
2022/09/06 09:04:44;;;;;;;;;;;28.00;99.90;;;;;;5093160;28;19912;-80
2022/09/06 09:07:20;;;;;;;;;;;30.10;99.90;;;;;;5093052;28;19935;-79
2022/09/06 09:09:46;;;;;;;;;;;32.10;99.90;;;;;;5094966;28;19912;-80
2022/09/06 09:12:13;;;;;;;;;;;34.00;99.50;;;;;;5095174;28;20393;-80
2022/09/06 09:14:41;;;;;;;;;;;35.60;92.60;;;;;;5095619;28;20321;-81
2022/09/06 09:17:21;;;;;;;;;;;37.10;84.60;;;;;;5093797;28;19962;-81
2022/09/06 09:19:46;;;;;;;;;;;38.40;73.20;;;;;;5096830;28;20344;-82
2022/09/06 09:22:14;;;;;;;;;;;39.10;64.50;;;;;;5095076;28;19908;-81
2022/09/06 09:24:40;;;;;;;;;;;40.20;60.00;;;;;;5094513;28;19908;-82
2022/09/06 09:27:07;;;;;;;;;;;41.20;54.80;;;;;;5095039;28;19912;-82
2022/09/06 09:29:52;;;;;;;;;;;41.50;51.00;;;;;;5095471;28;20057;-82
2022/09/06 09:32:37;;;;;;;;;;;41.90;51.30;;;;;;5094862;28;19951;-82
2022/09/06 09:35:20;;;;;;;;;;;42.70;49.60;;;;;;5096154;28;19916;-83
2022/09/06 09:37:46;;;;;;;;;;;43.30;47.20;;;;;;5095838;28;19955;-83
2022/09/06 09:40:32;;;;;;;;;;;43.60;43.60;;;;;;5096158;28;19912;-83
2022/09/06 09:43:17;;;;;;;;;;;43.50;43.40;;;;;;5085424;28;19998;-82
2022/09/06 09:45:43;;;;;;;;;;;43.40;41.90;;;;;;5096190;28;19908;-82
2022/09/06 09:48:17;;;;;;;;;;;42.50;41.80;;;;;;5095719;28;19912;-82
2022/09/06 09:50:43;;;;;;;;;;;41.70;43.90;;;;;;5096520;28;19909;-82
2022/09/06 09:53:09;;;;;;;;;;;40.60;43.00;;;;;;5096633;28;19949;-83
2022/09/06 09:55:35;;;;;;;;;;;39.30;42.50;;;;;;5096148;28;19916;-83
2022/09/06 09:58:01;;;;;;;;;;;38.10;44.00;;;;;;5093553;28;19916;-82
2022/09/06 10:00:40;;;;;;;;;;;37.10;46.20;;;;;;5093872;28;19912;-83
2022/09/06 10:03:12;;;;;;;;;;;36.30;47.20;;;;;;5085947;28;20294;-82
2022/09/06 10:05:38;;;;;;;;;;;35.50;49.50;;;;;;5081525;28;20259;-82
2022/09/06 10:08:08;;;;;;;;;;;34.70;50.80;;;;;;5079992;28;20401;-81
2022/09/06 10:10:38;;;;;;;;;;;34.20;51.70;;;;;;5074725;28;19934;-81
2022/09/06 10:13:05;;;;;;;;;;;33.70;52.40;;;;;;5077553;28;19908;-81
2022/09/06 10:15:32;;;;;;;;;;;33.30;57.50;;;;;;5076466;28;19908;-84
2022/09/06 10:20:44;;;;;;;;;;;32.50;55.20;;;;;;5087096;28;19946;-80
2022/09/06 10:23:19;;;;;;;;;;;32.30;56.80;;;;;;5086393;28;19908;-83
2022/09/06 10:26:03;;;;;;;;;;;32.10;55.60;;;;;;5080110;28;19908;-81
2022/09/06 10:28:29;;;;;;;;;;;32.10;56.90;;;;;;5078491;28;20451;-82
2022/09/06 10:31:01;;;;;;;;;;;31.80;56.20;;;;;;5091664;28;19908;-85
2022/09/06 10:33:26;;;;;;;;;;;31.60;57.10;;;;;;5087602;28;19909;-82
2022/09/06 10:35:54;;;;;;;;;;;31.40;59.90;;;;;;5079720;28;19919;-81
2022/09/06 10:38:37;;;;;;;;;;;31.20;57.00;;;;;;5081607;28;19908;-84
2022/09/06 10:41:21;;;;;;;;;;;30.90;57.50;;;;;;5088000;28;20007;-80
2022/09/06 10:43:56;;;;;;;;;;;30.70;58.90;;;;;;5095416;28;20323;-81
2022/09/06 10:46:24;;;;;;;;;;;30.60;59.40;;;;;;5091828;28;19912;-82
2022/09/06 10:48:51;;;;;;;;;;;30.40;59.80;;;;;;5097866;28;19908;-81
2022/09/06 10:51:20;;;;;;;;;;;30.40;62.80;;;;;;5097584;28;20290;-82
2022/09/06 10:53:57;;;;;;;;;;;30.40;62.40;;;;;;5098877;28;19930;-81
2022/09/06 10:56:36;;;;;;;;;;;30.40;63.90;;;;;;5104039;28;19911;-81
2022/09/06 10:59:17;;;;;;;;;;;30.40;65.90;;;;;;5100050;28;19908;-82
2022/09/06 11:01:45;;;;;;;;;;;30.30;62.10;;;;;;5103272;28;19953;-84
2022/09/06 11:04:18;;;;;;;;;;;30.30;63.20;;;;;;5107353;28;19913;-83
2022/09/06 11:06:47;;;;;;;;;;;30.20;63.40;;;;;;5108149;28;19919;-82
2022/09/06 11:09:39;;;;;;;;;;;30.20;63.00;;;;;;5106456;28;19908;-83
2022/09/06 11:12:18;;;;;;;;;;;30.20;64.50;;;;;;5095506;28;19908;-83
2022/09/06 11:14:44;;;;;;;;;;;30.30;64.80;;;;;;5102822;28;19912;-83
2022/09/06 11:17:10;;;;;;;;;;;30.40;65.10;;;;;;5089575;28;19954;-82
2022/09/06 11:19:48;;;;;;;;;;;30.40;65.30;;;;;;5098359;28;19916;-82
2022/09/06 11:22:25;;;;;;;;;;;30.50;62.50;;;;;;5093360;28;19912;-81
2022/09/06 11:24:51;;;;;;;;;;;30.40;66.20;;;;;;5092830;28;20023;-80
2022/09/06 11:27:31;;;;;;;;;;;30.50;66.80;;;;;;5096582;28;19963;-82
2022/09/06 11:29:58;;;;;;;;;;;30.50;66.80;;;;;;5097060;28;19908;-80
2022/09/06 11:32:26;;;;;;;;;;;30.50;65.10;;;;;;5094897;28;19912;-80
2022/09/06 11:34:53;;;;;;;;;;;30.60;63.60;;;;;;5095490;28;19912;-78
2022/09/06 11:37:23;;;;;;;;;;;30.60;66.60;;;;;;5095343;28;19920;-78
2022/09/06 11:40:02;;;;;;;;;;;30.70;65.60;;;;;;5095149;28;19919;-78
2022/09/06 11:42:39;;;;;;;;;;;30.70;64.10;;;;;;5094040;28;20295;-78
2022/09/06 11:45:05;;;;;;;;;;;30.60;63.40;;;;;;5093899;28;19950;-78
2022/09/06 11:47:33;;;;;;;;;;;30.60;63.70;;;;;;5093583;28;20383;-78
2022/09/06 11:50:16;;;;;;;;;;;30.70;64.50;;;;;;5093980;28;19916;-79
2022/09/06 11:52:58;;;;;;;;;;;30.80;64.00;;;;;;5094492;28;19961;-79
2022/09/06 11:55:35;;;;;;;;;;;30.80;63.90;;;;;;5094629;28;19919;-79
2022/09/06 11:58:02;;;;;;;;;;;30.80;64.00;;;;;;5094025;28;19908;-79
2022/09/06 12:00:28;;;;;;;;;;;30.90;66.20;;;;;;5093503;28;19912;-79
2022/09/06 12:02:54;;;;;;;;;;;30.90;64.40;;;;;;5095227;28;19908;-79
2022/09/06 12:05:22;;;;;;;;;;;31.00;64.60;;;;;;5094161;28;19961;-78
2022/09/06 12:08:06;;;;;;;;;;;31.00;65.00;;;;;;5096016;28;19999;-80
2022/09/06 12:10:31;;;;;;;;;;;31.10;66.10;;;;;;5097109;28;20348;-80
2022/09/06 12:12:57;;;;;;;;;;;31.00;63.70;;;;;;5098910;28;19916;-81
2022/09/06 12:15:27;;;;;;;;;;;31.00;65.30;;;;;;5098059;28;19916;-79
2022/09/06 12:17:53;;;;;;;;;;;31.10;66.30;;;;;;5095191;28;19916;-80
2022/09/06 12:20:37;;;;;;;;;;;31.20;65.00;;;;;;5095844;28;19919;-80
2022/09/06 12:23:03;;;;;;;;;;;31.30;65.70;;;;;;5095323;28;19908;-80
2022/09/06 12:25:34;;;;;;;;;;;31.40;68.30;;;;;;5093257;28;19933;-80
2022/09/06 12:28:01;;;;;;;;;;;31.50;66.80;;;;;;5096983;28;19912;-80
2022/09/06 12:30:41;;;;;;;;;;;31.60;66.90;;;;;;5104236;28;19912;-81
2022/09/06 12:33:23;;;;;;;;;;;31.90;65.70;;;;;;5101342;28;19912;-80
2022/09/06 12:35:49;;;;;;;;;;;32.20;65.10;;;;;;5095909;28;19912;-80
2022/09/06 12:38:16;;;;;;;;;;;32.30;66.50;;;;;;5097160;28;20002;-80
2022/09/06 12:40:46;;;;;;;;;;;32.20;64.50;;;;;;5100178;28;19912;-80
2022/09/06 12:43:13;;;;;;;;;;;32.30;66.30;;;;;;5102029;28;19908;-80
2022/09/06 12:45:43;;;;;;;;;;;32.20;62.40;;;;;;5098067;28;19915;-81
2022/09/06 12:48:10;;;;;;;;;;;32.30;63.20;;;;;;5101712;28;19912;-80
2022/09/06 12:50:36;;;;;;;;;;;32.20;64.60;;;;;;5100455;28;20438;-80
2022/09/06 12:53:03;;;;;;;;;;;32.10;64.00;;;;;;5101842;28;19946;-82
2022/09/06 12:55:33;;;;;;;;;;;32.00;63.40;;;;;;5103054;28;19915;-80
2022/09/06 12:58:00;;;;;;;;;;;32.00;63.80;;;;;;5098419;28;19908;-81
2022/09/06 13:00:31;;;;;;;;;;;32.00;65.30;;;;;;5095755;28;19950;-80
2022/09/06 13:03:07;;;;;;;;;;;32.10;65.80;;;;;;5098304;28;19956;-79
2022/09/06 13:05:34;;;;;;;;;;;32.10;63.50;;;;;;5095493;28;19908;-78
2022/09/06 13:08:02;;;;;;;;;;;32.10;64.10;;;;;;5075797;28;20019;-77
2022/09/06 13:10:27;;;;;;;;;;;32.00;59.70;;;;;;5072844;28;20497;-77
2022/09/06 13:12:55;;;;;;;;;;;32.10;56.60;;;;;;5073055;28;19909;-79
2022/09/06 13:15:27;;;;;;;;;;;32.10;55.10;;;;;;5073301;28;19944;-77
2022/09/06 13:17:54;;;;;;;;;;;32.00;55.00;;;;;;5071887;28;19909;-77
2022/09/06 13:20:22;;;;;;;;;;;32.10;54.70;;;;;;5071819;28;20364;-77
2022/09/06 13:22:49;;;;;;;;;;;32.10;56.40;;;;;;5073114;28;20310;-77
2022/09/06 13:25:21;;;;;;;;;;;32.10;59.10;;;;;;5073078;28;19957;-78
2022/09/06 13:27:56;;;;;;;;;;;32.00;59.90;;;;;;5072273;28;19944;-78
2022/09/06 13:30:47;;;;;;;;;;;32.10;59.00;;;;;;5072833;28;19962;-77
2022/09/06 13:33:21;;;;;;;;;;;32.10;59.10;;;;;;5069278;28;19908;-80
2022/09/06 13:35:49;;;;;;;;;;;32.30;61.00;;;;;;5072661;28;19916;-81
2022/09/06 13:38:19;;;;;;;;;;;32.50;61.40;;;;;;5071983;28;19923;-81
2022/09/06 13:40:45;;;;;;;;;;;32.70;65.00;;;;;;5073167;28;19947;-80
2022/09/06 13:43:11;;;;;;;;;;;32.80;68.60;;;;;;5072873;28;19975;-78
2022/09/06 13:45:37;;;;;;;;;;;32.80;62.10;;;;;;5072245;28;19908;-77
2022/09/06 13:48:02;;;;;;;;;;;32.70;49.20;;;;;;5076783;28;20307;-77
2022/09/06 13:50:28;;;;;;;;;;;32.60;50.60;;;;;;5077196;28;20402;-79
2022/09/06 13:52:53;;;;;;;;;;;32.60;47.70;;;;;;5077247;28;19909;-78
2022/09/06 13:55:29;;;;;;;;;;;32.60;48.60;;;;;;5076992;28;19948;-80
2022/09/06 13:57:54;;;;;;;;;;;32.60;47.50;;;;;;5076556;28;19912;-77
2022/09/06 14:00:20;;;;;;;;;;;32.50;48.30;;;;;;5076403;28;19932;-77
2022/09/06 14:02:46;;;;;;;;;;;32.50;48.70;;;;;;5085489;28;20019;-80
2022/09/06 14:05:12;;;;;;;;;;;32.40;49.80;;;;;;5100224;28;19943;-78
2022/09/06 14:07:37;;;;;;;;;;;32.50;47.90;;;;;;5099046;28;20298;-79
2022/09/06 14:10:03;;;;;;;;;;;32.50;47.10;;;;;;5097852;28;19912;-79
2022/09/06 14:12:28;;;;;;;;;;;32.50;48.70;;;;;;5099210;28;19908;-80
2022/09/06 14:14:54;;;;;;;;;;;32.60;47.60;;;;;;5098110;28;19919;-78
2022/09/06 14:17:20;;;;;;;;;;;32.60;47.00;;;;;;5096644;28;20401;-78
2022/09/06 14:19:45;;;;;;;;;;;32.80;45.30;;;;;;5097168;28;19916;-79
2022/09/06 14:22:11;;;;;;;;;;;33.00;52.80;;;;;;5097882;28;20393;-78
2022/09/06 14:24:37;;;;;;;;;;;33.10;48.50;;;;;;5099113;28;19970;-79
2022/09/06 14:27:04;;;;;;;;;;;33.30;44.00;;;;;;5096273;28;19966;-78
2022/09/06 14:29:30;;;;;;;;;;;33.60;44.80;;;;;;5097512;28;19908;-78
2022/09/06 14:31:55;;;;;;;;;;;33.90;47.20;;;;;;5097671;28;20052;-78